sensor_id;sensor_type;location;lat;lon;timestamp;P1;durP1;ratioP1;P2;durP2;ratioP2
11537;SDS011;50159;49.426;11.182;2022-10-16T00:01:39;1.40;;;1.40;;
11537;SDS011;50159;49.426;11.182;2022-10-16T00:04:06;2.00;;;1.90;;
11537;SDS011;50159;49.426;11.182;2022-10-16T00:06:33;1.60;;;1.50;;
11537;SDS011;50159;49.426;11.182;2022-10-16T00:09:00;1.53;;;1.53;;
11537;SDS011;50159;49.426;11.182;2022-10-16T00:11:28;1.50;;;1.50;;
11537;SDS011;50159;49.426;11.182;2022-10-16T00:14:03;1.60;;;1.60;;
11537;SDS011;50159;49.426;11.182;2022-10-16T00:16:37;1.83;;;1.30;;
11537;SDS011;50159;49.426;11.182;2022-10-16T00:19:05;1.40;;;1.40;;
11537;SDS011;50159;49.426;11.182;2022-10-16T00:21:33;2.70;;;2.00;;
11537;SDS011;50159;49.426;11.182;2022-10-16T00:24:01;1.40;;;1.40;;
11537;SDS011;50159;49.426;11.182;2022-10-16T00:26:32;1.40;;;1.40;;
11537;SDS011;50159;49.426;11.182;2022-10-16T00:29:00;1.53;;;1.53;;
11537;SDS011;50159;49.426;11.182;2022-10-16T00:31:28;1.40;;;1.40;;
11537;SDS011;50159;49.426;11.182;2022-10-16T00:33:56;1.50;;;1.40;;
11537;SDS011;50159;49.426;11.182;2022-10-16T00:36:23;1.47;;;1.47;;
11537;SDS011;50159;49.426;11.182;2022-10-16T00:38:53;1.80;;;1.70;;
11537;SDS011;50159;49.426;11.182;2022-10-16T00:41:24;1.40;;;1.40;;
11537;SDS011;50159;49.426;11.182;2022-10-16T00:43:52;1.50;;;1.50;;
11537;SDS011;50159;49.426;11.182;2022-10-16T00:49:02;1.43;;;1.43;;
11537;SDS011;50159;49.426;11.182;2022-10-16T00:51:36;1.50;;;1.50;;
11537;SDS011;50159;49.426;11.182;2022-10-16T00:54:22;1.60;;;1.50;;
11537;SDS011;50159;49.426;11.182;2022-10-16T00:56:54;1.70;;;1.60;;
11537;SDS011;50159;49.426;11.182;2022-10-16T00:59:28;1.70;;;1.60;;
11537;SDS011;50159;49.426;11.182;2022-10-16T01:01:59;1.50;;;1.50;;
11537;SDS011;50159;49.426;11.182;2022-10-16T01:04:31;1.70;;;1.70;;
11537;SDS011;50159;49.426;11.182;2022-10-16T01:09:58;1.63;;;1.53;;
11537;SDS011;50159;49.426;11.182;2022-10-16T01:16:12;1.50;;;1.50;;
11537;SDS011;50159;49.426;11.182;2022-10-16T01:18:52;1.97;;;1.87;;
11537;SDS011;50159;49.426;11.182;2022-10-16T01:21:33;1.63;;;1.63;;
11537;SDS011;50159;49.426;11.182;2022-10-16T01:29:59;1.37;;;1.37;;
11537;SDS011;50159;49.426;11.182;2022-10-16T01:32:50;1.43;;;1.43;;
11537;SDS011;50159;49.426;11.182;2022-10-16T01:35:27;1.83;;;1.73;;
11537;SDS011;50159;49.426;11.182;2022-10-16T01:38:12;1.40;;;1.30;;
11537;SDS011;50159;49.426;11.182;2022-10-16T01:41:00;1.40;;;1.40;;
11537;SDS011;50159;49.426;11.182;2022-10-16T01:43:38;1.40;;;1.40;;
11537;SDS011;50159;49.426;11.182;2022-10-16T01:46:14;1.53;;;1.53;;
11537;SDS011;50159;49.426;11.182;2022-10-16T01:48:46;1.50;;;1.50;;
11537;SDS011;50159;49.426;11.182;2022-10-16T01:51:17;1.50;;;1.50;;
11537;SDS011;50159;49.426;11.182;2022-10-16T01:53:48;1.30;;;1.30;;
11537;SDS011;50159;49.426;11.182;2022-10-16T01:56:20;1.77;;;1.70;;
11537;SDS011;50159;49.426;11.182;2022-10-16T01:58:58;1.67;;;1.67;;
11537;SDS011;50159;49.426;11.182;2022-10-16T02:01:33;1.80;;;1.80;;
11537;SDS011;50159;49.426;11.182;2022-10-16T02:04:09;1.90;;;1.90;;
11537;SDS011;50159;49.426;11.182;2022-10-16T02:06:45;1.47;;;1.47;;
11537;SDS011;50159;49.426;11.182;2022-10-16T02:09:12;2.03;;;1.93;;
11537;SDS011;50159;49.426;11.182;2022-10-16T02:11:39;1.50;;;1.50;;
11537;SDS011;50159;49.426;11.182;2022-10-16T02:14:06;2.83;;;1.87;;
11537;SDS011;50159;49.426;11.182;2022-10-16T02:16:35;2.20;;;2.00;;
11537;SDS011;50159;49.426;11.182;2022-10-16T02:19:06;1.70;;;1.60;;
11537;SDS011;50159;49.426;11.182;2022-10-16T02:30:07;1.50;;;1.50;;
11537;SDS011;50159;49.426;11.182;2022-10-16T02:32:55;1.50;;;1.50;;
11537;SDS011;50159;49.426;11.182;2022-10-16T02:35:27;1.70;;;1.70;;
11537;SDS011;50159;49.426;11.182;2022-10-16T02:37:55;1.60;;;1.60;;
11537;SDS011;50159;49.426;11.182;2022-10-16T02:40:23;1.70;;;1.70;;
11537;SDS011;50159;49.426;11.182;2022-10-16T02:42:52;1.33;;;1.33;;
11537;SDS011;50159;49.426;11.182;2022-10-16T02:45:21;1.77;;;1.77;;
11537;SDS011;50159;49.426;11.182;2022-10-16T02:47:49;1.70;;;1.60;;
11537;SDS011;50159;49.426;11.182;2022-10-16T02:50:16;1.60;;;1.60;;
11537;SDS011;50159;49.426;11.182;2022-10-16T02:52:43;2.27;;;1.80;;
11537;SDS011;50159;49.426;11.182;2022-10-16T02:55:10;1.63;;;1.53;;
11537;SDS011;50159;49.426;11.182;2022-10-16T02:57:36;1.53;;;1.53;;
11537;SDS011;50159;49.426;11.182;2022-10-16T03:00:04;2.07;;;1.90;;
11537;SDS011;50159;49.426;11.182;2022-10-16T03:02:34;1.90;;;1.73;;
11537;SDS011;50159;49.426;11.182;2022-10-16T03:05:01;1.73;;;1.63;;
11537;SDS011;50159;49.426;11.182;2022-10-16T03:07:27;1.60;;;1.50;;
11537;SDS011;50159;49.426;11.182;2022-10-16T03:09:54;1.70;;;1.70;;
11537;SDS011;50159;49.426;11.182;2022-10-16T03:12:21;1.43;;;1.43;;
11537;SDS011;50159;49.426;11.182;2022-10-16T03:14:48;1.77;;;1.67;;
11537;SDS011;50159;49.426;11.182;2022-10-16T03:17:15;1.60;;;1.50;;
11537;SDS011;50159;49.426;11.182;2022-10-16T03:19:42;1.40;;;1.40;;
11537;SDS011;50159;49.426;11.182;2022-10-16T03:22:09;1.57;;;1.57;;
11537;SDS011;50159;49.426;11.182;2022-10-16T03:24:36;1.50;;;1.50;;
11537;SDS011;50159;49.426;11.182;2022-10-16T03:27:03;5.40;;;1.40;;
11537;SDS011;50159;49.426;11.182;2022-10-16T03:29:30;1.50;;;1.50;;
11537;SDS011;50159;49.426;11.182;2022-10-16T03:31:58;1.70;;;1.70;;
11537;SDS011;50159;49.426;11.182;2022-10-16T03:34:26;1.47;;;1.47;;
11537;SDS011;50159;49.426;11.182;2022-10-16T03:36:54;1.50;;;1.40;;
11537;SDS011;50159;49.426;11.182;2022-10-16T03:39:21;1.50;;;1.50;;
11537;SDS011;50159;49.426;11.182;2022-10-16T03:41:47;2.23;;;1.40;;
11537;SDS011;50159;49.426;11.182;2022-10-16T03:44:14;1.60;;;1.50;;
11537;SDS011;50159;49.426;11.182;2022-10-16T03:46:41;2.30;;;1.80;;
11537;SDS011;50159;49.426;11.182;2022-10-16T03:49:08;2.10;;;1.90;;
11537;SDS011;50159;49.426;11.182;2022-10-16T03:51:35;1.70;;;1.70;;
11537;SDS011;50159;49.426;11.182;2022-10-16T03:54:02;1.80;;;1.70;;
11537;SDS011;50159;49.426;11.182;2022-10-16T03:56:29;1.67;;;1.63;;
11537;SDS011;50159;49.426;11.182;2022-10-16T03:58:56;1.57;;;1.57;;
11537;SDS011;50159;49.426;11.182;2022-10-16T04:01:23;1.60;;;1.60;;
11537;SDS011;50159;49.426;11.182;2022-10-16T04:03:51;1.60;;;1.60;;
11537;SDS011;50159;49.426;11.182;2022-10-16T04:06:18;1.70;;;1.60;;
11537;SDS011;50159;49.426;11.182;2022-10-16T04:08:45;1.70;;;1.60;;
11537;SDS011;50159;49.426;11.182;2022-10-16T04:11:12;1.70;;;1.70;;
11537;SDS011;50159;49.426;11.182;2022-10-16T04:13:39;2.07;;;1.87;;
11537;SDS011;50159;49.426;11.182;2022-10-16T04:16:05;1.63;;;1.53;;
11537;SDS011;50159;49.426;11.182;2022-10-16T04:18:32;1.63;;;1.53;;
11537;SDS011;50159;49.426;11.182;2022-10-16T04:21:06;1.63;;;1.63;;
11537;SDS011;50159;49.426;11.182;2022-10-16T04:23:33;1.70;;;1.70;;
11537;SDS011;50159;49.426;11.182;2022-10-16T04:26:00;1.53;;;1.43;;
11537;SDS011;50159;49.426;11.182;2022-10-16T04:28:27;2.10;;;2.00;;
11537;SDS011;50159;49.426;11.182;2022-10-16T04:30:55;1.40;;;1.40;;
11537;SDS011;50159;49.426;11.182;2022-10-16T04:33:21;1.50;;;1.50;;
11537;SDS011;50159;49.426;11.182;2022-10-16T04:35:48;1.40;;;1.40;;
11537;SDS011;50159;49.426;11.182;2022-10-16T04:38:22;1.77;;;1.67;;
11537;SDS011;50159;49.426;11.182;2022-10-16T04:40:49;1.73;;;1.73;;
11537;SDS011;50159;49.426;11.182;2022-10-16T04:43:16;1.40;;;1.40;;
11537;SDS011;50159;49.426;11.182;2022-10-16T04:45:43;1.60;;;1.60;;
11537;SDS011;50159;49.426;11.182;2022-10-16T04:48:10;1.57;;;1.57;;
11537;SDS011;50159;49.426;11.182;2022-10-16T04:50:37;1.37;;;1.37;;
11537;SDS011;50159;49.426;11.182;2022-10-16T04:53:04;1.37;;;1.37;;
11537;SDS011;50159;49.426;11.182;2022-10-16T04:55:33;1.70;;;1.70;;
11537;SDS011;50159;49.426;11.182;2022-10-16T04:58:00;1.60;;;1.60;;
11537;SDS011;50159;49.426;11.182;2022-10-16T05:00:27;1.73;;;1.63;;
11537;SDS011;50159;49.426;11.182;2022-10-16T05:02:54;1.63;;;1.63;;
11537;SDS011;50159;49.426;11.182;2022-10-16T05:05:21;1.43;;;1.40;;
11537;SDS011;50159;49.426;11.182;2022-10-16T05:07:49;1.80;;;1.60;;
11537;SDS011;50159;49.426;11.182;2022-10-16T05:10:16;1.80;;;1.80;;
11537;SDS011;50159;49.426;11.182;2022-10-16T05:12:43;2.10;;;1.80;;
11537;SDS011;50159;49.426;11.182;2022-10-16T05:15:10;1.93;;;1.70;;
11537;SDS011;50159;49.426;11.182;2022-10-16T05:17:37;1.80;;;1.80;;
11537;SDS011;50159;49.426;11.182;2022-10-16T05:20:10;1.60;;;1.60;;
11537;SDS011;50159;49.426;11.182;2022-10-16T05:22:37;1.50;;;1.50;;
11537;SDS011;50159;49.426;11.182;2022-10-16T05:25:04;1.60;;;1.60;;
11537;SDS011;50159;49.426;11.182;2022-10-16T05:27:32;1.40;;;1.40;;
11537;SDS011;50159;49.426;11.182;2022-10-16T05:29:58;1.50;;;1.50;;
11537;SDS011;50159;49.426;11.182;2022-10-16T05:32:25;2.83;;;1.50;;
11537;SDS011;50159;49.426;11.182;2022-10-16T05:34:52;1.80;;;1.70;;
11537;SDS011;50159;49.426;11.182;2022-10-16T05:37:19;1.70;;;1.70;;
11537;SDS011;50159;49.426;11.182;2022-10-16T05:39:46;1.60;;;1.60;;
11537;SDS011;50159;49.426;11.182;2022-10-16T05:42:13;1.73;;;1.73;;
11537;SDS011;50159;49.426;11.182;2022-10-16T05:44:40;1.63;;;1.53;;
11537;SDS011;50159;49.426;11.182;2022-10-16T05:47:07;1.80;;;1.80;;
11537;SDS011;50159;49.426;11.182;2022-10-16T05:49:35;1.80;;;1.70;;
11537;SDS011;50159;49.426;11.182;2022-10-16T05:52:06;1.50;;;1.50;;
11537;SDS011;50159;49.426;11.182;2022-10-16T05:54:33;1.70;;;1.60;;
11537;SDS011;50159;49.426;11.182;2022-10-16T05:57:00;2.77;;;1.73;;
11537;SDS011;50159;49.426;11.182;2022-10-16T05:59:28;1.60;;;1.60;;
11537;SDS011;50159;49.426;11.182;2022-10-16T06:01:54;1.90;;;1.80;;
11537;SDS011;50159;49.426;11.182;2022-10-16T06:04:21;1.57;;;1.57;;
11537;SDS011;50159;49.426;11.182;2022-10-16T06:06:48;1.60;;;1.60;;
11537;SDS011;50159;49.426;11.182;2022-10-16T06:09:15;1.50;;;1.50;;
11537;SDS011;50159;49.426;11.182;2022-10-16T06:11:42;1.50;;;1.50;;
11537;SDS011;50159;49.426;11.182;2022-10-16T06:14:09;1.57;;;1.57;;
11537;SDS011;50159;49.426;11.182;2022-10-16T06:16:36;2.00;;;1.90;;
11537;SDS011;50159;49.426;11.182;2022-10-16T06:19:04;1.87;;;1.80;;
11537;SDS011;50159;49.426;11.182;2022-10-16T06:21:35;1.67;;;1.57;;
11537;SDS011;50159;49.426;11.182;2022-10-16T06:24:02;3.97;;;1.93;;
11537;SDS011;50159;49.426;11.182;2022-10-16T06:26:30;1.70;;;1.70;;
11537;SDS011;50159;49.426;11.182;2022-10-16T06:28:58;1.80;;;1.80;;
11537;SDS011;50159;49.426;11.182;2022-10-16T06:31:26;1.50;;;1.50;;
11537;SDS011;50159;49.426;11.182;2022-10-16T06:33:56;1.67;;;1.67;;
11537;SDS011;50159;49.426;11.182;2022-10-16T06:36:24;1.57;;;1.47;;
11537;SDS011;50159;49.426;11.182;2022-10-16T06:38:51;1.73;;;1.73;;
11537;SDS011;50159;49.426;11.182;2022-10-16T06:41:20;1.83;;;1.80;;
11537;SDS011;50159;49.426;11.182;2022-10-16T06:43:49;1.70;;;1.70;;
11537;SDS011;50159;49.426;11.182;2022-10-16T06:46:17;1.80;;;1.70;;
11537;SDS011;50159;49.426;11.182;2022-10-16T06:48:48;1.57;;;1.50;;
11537;SDS011;50159;49.426;11.182;2022-10-16T06:51:19;1.87;;;1.80;;
11537;SDS011;50159;49.426;11.182;2022-10-16T06:53:49;2.00;;;2.00;;
11537;SDS011;50159;49.426;11.182;2022-10-16T06:56:30;1.53;;;1.53;;
11537;SDS011;50159;49.426;11.182;2022-10-16T06:58:59;2.47;;;1.80;;
11537;SDS011;50159;49.426;11.182;2022-10-16T07:01:27;2.57;;;1.97;;
11537;SDS011;50159;49.426;11.182;2022-10-16T07:03:54;1.80;;;1.70;;
11537;SDS011;50159;49.426;11.182;2022-10-16T07:06:22;1.80;;;1.80;;
11537;SDS011;50159;49.426;11.182;2022-10-16T07:08:51;1.93;;;1.83;;
11537;SDS011;50159;49.426;11.182;2022-10-16T07:11:20;2.10;;;2.00;;
11537;SDS011;50159;49.426;11.182;2022-10-16T07:13:49;1.70;;;1.70;;
11537;SDS011;50159;49.426;11.182;2022-10-16T07:16:22;2.03;;;1.93;;
11537;SDS011;50159;49.426;11.182;2022-10-16T07:18:56;2.00;;;1.90;;
11537;SDS011;50159;49.426;11.182;2022-10-16T07:21:27;1.90;;;1.83;;
11537;SDS011;50159;49.426;11.182;2022-10-16T07:23:58;2.00;;;1.90;;
11537;SDS011;50159;49.426;11.182;2022-10-16T07:26:28;1.97;;;1.87;;
11537;SDS011;50159;49.426;11.182;2022-10-16T07:28:58;1.80;;;1.70;;
11537;SDS011;50159;49.426;11.182;2022-10-16T07:31:25;1.80;;;1.70;;
11537;SDS011;50159;49.426;11.182;2022-10-16T07:33:53;1.93;;;1.83;;
11537;SDS011;50159;49.426;11.182;2022-10-16T07:36:21;2.17;;;2.00;;
11537;SDS011;50159;49.426;11.182;2022-10-16T07:38:48;2.33;;;2.10;;
11537;SDS011;50159;49.426;11.182;2022-10-16T07:41:20;2.30;;;2.20;;
11537;SDS011;50159;49.426;11.182;2022-10-16T07:43:48;2.17;;;1.90;;
11537;SDS011;50159;49.426;11.182;2022-10-16T07:46:18;6.70;;;2.10;;
11537;SDS011;50159;49.426;11.182;2022-10-16T07:48:46;2.33;;;1.87;;
11537;SDS011;50159;49.426;11.182;2022-10-16T07:51:16;1.80;;;1.80;;
11537;SDS011;50159;49.426;11.182;2022-10-16T07:53:46;1.80;;;1.80;;
11537;SDS011;50159;49.426;11.182;2022-10-16T07:56:14;1.97;;;1.97;;
11537;SDS011;50159;49.426;11.182;2022-10-16T07:58:42;2.60;;;1.83;;
11537;SDS011;50159;49.426;11.182;2022-10-16T08:01:11;1.80;;;1.70;;
11537;SDS011;50159;49.426;11.182;2022-10-16T08:03:41;2.00;;;1.90;;
11537;SDS011;50159;49.426;11.182;2022-10-16T08:06:10;2.70;;;1.90;;
11537;SDS011;50159;49.426;11.182;2022-10-16T08:08:37;2.03;;;1.83;;
11537;SDS011;50159;49.426;11.182;2022-10-16T08:11:04;1.70;;;1.60;;
11537;SDS011;50159;49.426;11.182;2022-10-16T08:13:31;1.60;;;1.60;;
11537;SDS011;50159;49.426;11.182;2022-10-16T08:15:58;2.00;;;1.90;;
11537;SDS011;50159;49.426;11.182;2022-10-16T08:18:25;1.80;;;1.70;;
11537;SDS011;50159;49.426;11.182;2022-10-16T08:20:56;1.57;;;1.57;;
11537;SDS011;50159;49.426;11.182;2022-10-16T08:23:26;1.67;;;1.67;;
11537;SDS011;50159;49.426;11.182;2022-10-16T08:25:54;1.80;;;1.70;;
11537;SDS011;50159;49.426;11.182;2022-10-16T08:28:27;1.93;;;1.80;;
11537;SDS011;50159;49.426;11.182;2022-10-16T08:30:54;1.50;;;1.50;;
11537;SDS011;50159;49.426;11.182;2022-10-16T08:33:22;1.97;;;1.87;;
11537;SDS011;50159;49.426;11.182;2022-10-16T08:35:50;1.80;;;1.80;;
11537;SDS011;50159;49.426;11.182;2022-10-16T08:38:20;1.67;;;1.67;;
11537;SDS011;50159;49.426;11.182;2022-10-16T08:40:47;1.30;;;1.30;;
11537;SDS011;50159;49.426;11.182;2022-10-16T08:43:36;1.60;;;1.50;;
11537;SDS011;50159;49.426;11.182;2022-10-16T08:49:15;1.97;;;1.77;;
11537;SDS011;50159;49.426;11.182;2022-10-16T08:51:43;1.70;;;1.70;;
11537;SDS011;50159;49.426;11.182;2022-10-16T08:54:21;1.80;;;1.70;;
11537;SDS011;50159;49.426;11.182;2022-10-16T08:57:08;1.93;;;1.87;;
11537;SDS011;50159;49.426;11.182;2022-10-16T08:59:45;1.60;;;1.60;;
11537;SDS011;50159;49.426;11.182;2022-10-16T09:07:49;1.87;;;1.77;;
11537;SDS011;50159;49.426;11.182;2022-10-16T09:13:29;1.60;;;1.60;;
11537;SDS011;50159;49.426;11.182;2022-10-16T09:16:41;2.13;;;1.23;;
11537;SDS011;50159;49.426;11.182;2022-10-16T09:19:31;1.67;;;1.60;;
11537;SDS011;50159;49.426;11.182;2022-10-16T09:22:10;2.30;;;1.60;;
11537;SDS011;50159;49.426;11.182;2022-10-16T09:24:43;1.77;;;1.67;;
11537;SDS011;50159;49.426;11.182;2022-10-16T09:27:10;1.67;;;1.57;;
11537;SDS011;50159;49.426;11.182;2022-10-16T09:29:39;1.73;;;1.60;;
11537;SDS011;50159;49.426;11.182;2022-10-16T09:32:09;1.67;;;1.57;;
11537;SDS011;50159;49.426;11.182;2022-10-16T09:34:42;1.40;;;1.40;;
11537;SDS011;50159;49.426;11.182;2022-10-16T09:37:20;1.57;;;1.50;;
11537;SDS011;50159;49.426;11.182;2022-10-16T09:39:53;4.13;;;2.77;;
11537;SDS011;50159;49.426;11.182;2022-10-16T09:42:27;1.77;;;1.70;;
11537;SDS011;50159;49.426;11.182;2022-10-16T09:44:59;2.20;;;2.10;;
11537;SDS011;50159;49.426;11.182;2022-10-16T09:47:27;1.60;;;1.60;;
11537;SDS011;50159;49.426;11.182;2022-10-16T09:49:58;1.43;;;1.40;;
11537;SDS011;50159;49.426;11.182;2022-10-16T09:52:30;1.80;;;1.60;;
11537;SDS011;50159;49.426;11.182;2022-10-16T09:54:59;1.77;;;1.53;;
11537;SDS011;50159;49.426;11.182;2022-10-16T09:57:28;2.07;;;1.60;;
11537;SDS011;50159;49.426;11.182;2022-10-16T09:59:57;1.53;;;1.50;;
11537;SDS011;50159;49.426;11.182;2022-10-16T10:02:33;2.07;;;1.90;;
11537;SDS011;50159;49.426;11.182;2022-10-16T10:05:04;1.33;;;1.30;;
11537;SDS011;50159;49.426;11.182;2022-10-16T10:07:54;1.63;;;1.53;;
11537;SDS011;50159;49.426;11.182;2022-10-16T10:10:32;2.57;;;1.30;;
11537;SDS011;50159;49.426;11.182;2022-10-16T10:13:15;1.30;;;1.30;;
11537;SDS011;50159;49.426;11.182;2022-10-16T10:15:46;1.40;;;1.40;;
11537;SDS011;50159;49.426;11.182;2022-10-16T10:18:20;1.40;;;1.30;;
11537;SDS011;50159;49.426;11.182;2022-10-16T10:20:59;2.00;;;1.70;;
11537;SDS011;50159;49.426;11.182;2022-10-16T10:23:29;1.40;;;1.40;;
11537;SDS011;50159;49.426;11.182;2022-10-16T10:26:18;1.40;;;1.40;;
11537;SDS011;50159;49.426;11.182;2022-10-16T10:31:27;3.13;;;1.97;;
11537;SDS011;50159;49.426;11.182;2022-10-16T10:37:25;4.43;;;1.27;;
11537;SDS011;50159;49.426;11.182;2022-10-16T10:46:32;1.50;;;1.50;;
11537;SDS011;50159;49.426;11.182;2022-10-16T10:49:03;1.73;;;1.63;;
11537;SDS011;50159;49.426;11.182;2022-10-16T10:51:44;1.37;;;1.37;;
11537;SDS011;50159;49.426;11.182;2022-10-16T10:57:35;1.20;;;1.20;;
11537;SDS011;50159;49.426;11.182;2022-10-16T11:03:42;1.40;;;1.40;;
11537;SDS011;50159;49.426;11.182;2022-10-16T11:11:43;1.20;;;1.20;;
11537;SDS011;50159;49.426;11.182;2022-10-16T11:14:22;2.40;;;1.40;;
11537;SDS011;50159;49.426;11.182;2022-10-16T11:17:08;1.57;;;1.47;;
11537;SDS011;50159;49.426;11.182;2022-10-16T11:30:47;1.20;;;1.20;;
11537;SDS011;50159;49.426;11.182;2022-10-16T11:38:59;1.17;;;1.17;;
11537;SDS011;50159;49.426;11.182;2022-10-16T11:45:08;1.80;;;1.50;;
11537;SDS011;50159;49.426;11.182;2022-10-16T11:48:16;1.37;;;1.27;;
11537;SDS011;50159;49.426;11.182;2022-10-16T11:51:14;1.80;;;1.40;;
11537;SDS011;50159;49.426;11.182;2022-10-16T11:54:32;1.60;;;1.57;;
11537;SDS011;50159;49.426;11.182;2022-10-16T11:57:13;1.57;;;1.53;;
11537;SDS011;50159;49.426;11.182;2022-10-16T12:02:58;2.30;;;2.10;;
11537;SDS011;50159;49.426;11.182;2022-10-16T12:09:01;3.30;;;1.83;;
11537;SDS011;50159;49.426;11.182;2022-10-16T12:19:26;4.23;;;1.53;;
11537;SDS011;50159;49.426;11.182;2022-10-16T12:21:56;1.30;;;1.30;;
11537;SDS011;50159;49.426;11.182;2022-10-16T12:26:56;6.33;;;1.60;;
11537;SDS011;50159;49.426;11.182;2022-10-16T12:32:21;1.73;;;1.63;;
11537;SDS011;50159;49.426;11.182;2022-10-16T12:35:17;1.30;;;1.30;;
11537;SDS011;50159;49.426;11.182;2022-10-16T12:37:51;2.83;;;1.30;;
11537;SDS011;50159;49.426;11.182;2022-10-16T12:42:58;1.43;;;1.43;;
11537;SDS011;50159;49.426;11.182;2022-10-16T12:45:36;3.33;;;1.63;;
11537;SDS011;50159;49.426;11.182;2022-10-16T12:48:17;1.50;;;1.40;;
11537;SDS011;50159;49.426;11.182;2022-10-16T12:50:57;1.30;;;1.30;;
11537;SDS011;50159;49.426;11.182;2022-10-16T13:28:39;1.40;;;1.40;;
11537;SDS011;50159;49.426;11.182;2022-10-16T13:31:10;1.60;;;1.50;;
11537;SDS011;50159;49.426;11.182;2022-10-16T13:33:47;1.97;;;1.87;;
11537;SDS011;50159;49.426;11.182;2022-10-16T13:36:21;1.63;;;1.60;;
11537;SDS011;50159;49.426;11.182;2022-10-16T13:39:06;1.30;;;1.30;;
11537;SDS011;50159;49.426;11.182;2022-10-16T13:42:04;1.60;;;1.20;;
11537;SDS011;50159;49.426;11.182;2022-10-16T13:44:47;1.53;;;1.43;;
11537;SDS011;50159;49.426;11.182;2022-10-16T13:47:18;1.20;;;1.20;;
11537;SDS011;50159;49.426;11.182;2022-10-16T13:49:58;1.73;;;1.33;;
11537;SDS011;50159;49.426;11.182;2022-10-16T13:52:40;1.50;;;1.40;;
11537;SDS011;50159;49.426;11.182;2022-10-16T13:55:14;2.53;;;1.10;;
11537;SDS011;50159;49.426;11.182;2022-10-16T13:57:44;1.17;;;1.10;;
11537;SDS011;50159;49.426;11.182;2022-10-16T14:00:21;1.17;;;1.17;;
11537;SDS011;50159;49.426;11.182;2022-10-16T14:02:51;1.47;;;1.37;;
11537;SDS011;50159;49.426;11.182;2022-10-16T14:05:27;2.57;;;2.53;;
11537;SDS011;50159;49.426;11.182;2022-10-16T14:07:54;3.90;;;1.47;;
11537;SDS011;50159;49.426;11.182;2022-10-16T14:10:25;1.87;;;1.30;;
11537;SDS011;50159;49.426;11.182;2022-10-16T14:12:58;1.93;;;1.47;;
11537;SDS011;50159;49.426;11.182;2022-10-16T14:15:31;1.30;;;1.03;;
11537;SDS011;50159;49.426;11.182;2022-10-16T14:18:00;0.90;;;0.90;;
11537;SDS011;50159;49.426;11.182;2022-10-16T14:20:29;2.07;;;0.90;;
11537;SDS011;50159;49.426;11.182;2022-10-16T14:25:31;0.90;;;0.90;;
11537;SDS011;50159;49.426;11.182;2022-10-16T14:30:49;1.33;;;1.33;;
11537;SDS011;50159;49.426;11.182;2022-10-16T14:33:32;1.90;;;1.80;;
11537;SDS011;50159;49.426;11.182;2022-10-16T14:36:01;1.40;;;1.40;;
11537;SDS011;50159;49.426;11.182;2022-10-16T14:38:41;1.60;;;1.50;;
11537;SDS011;50159;49.426;11.182;2022-10-16T14:41:19;2.07;;;1.80;;
11537;SDS011;50159;49.426;11.182;2022-10-16T14:43:50;1.73;;;1.47;;
11537;SDS011;50159;49.426;11.182;2022-10-16T14:46:31;1.03;;;1.03;;
11537;SDS011;50159;49.426;11.182;2022-10-16T14:49:03;2.83;;;0.83;;
11537;SDS011;50159;49.426;11.182;2022-10-16T14:51:38;3.10;;;1.17;;
11537;SDS011;50159;49.426;11.182;2022-10-16T14:54:08;1.37;;;1.33;;
11537;SDS011;50159;49.426;11.182;2022-10-16T14:56:46;1.70;;;1.60;;
11537;SDS011;50159;49.426;11.182;2022-10-16T14:59:33;2.83;;;1.90;;
11537;SDS011;50159;49.426;11.182;2022-10-16T15:05:04;1.40;;;1.40;;
11537;SDS011;50159;49.426;11.182;2022-10-16T15:07:42;1.63;;;1.40;;
11537;SDS011;50159;49.426;11.182;2022-10-16T15:10:09;1.43;;;1.40;;
11537;SDS011;50159;49.426;11.182;2022-10-16T15:12:36;1.60;;;1.33;;
11537;SDS011;50159;49.426;11.182;2022-10-16T15:17:58;1.30;;;1.30;;
11537;SDS011;50159;49.426;11.182;2022-10-16T15:20:27;1.60;;;1.50;;
11537;SDS011;50159;49.426;11.182;2022-10-16T15:23:00;1.23;;;1.23;;
11537;SDS011;50159;49.426;11.182;2022-10-16T15:25:37;1.40;;;1.40;;
11537;SDS011;50159;49.426;11.182;2022-10-16T15:28:10;1.53;;;1.53;;
11537;SDS011;50159;49.426;11.182;2022-10-16T15:30:38;1.50;;;1.50;;
11537;SDS011;50159;49.426;11.182;2022-10-16T15:33:10;2.27;;;1.50;;
11537;SDS011;50159;49.426;11.182;2022-10-16T15:35:47;3.13;;;1.80;;
11537;SDS011;50159;49.426;11.182;2022-10-16T15:38:17;1.67;;;1.60;;
11537;SDS011;50159;49.426;11.182;2022-10-16T15:40:46;1.60;;;1.50;;
11537;SDS011;50159;49.426;11.182;2022-10-16T15:43:15;1.60;;;1.50;;
11537;SDS011;50159;49.426;11.182;2022-10-16T15:45:42;1.50;;;1.50;;
11537;SDS011;50159;49.426;11.182;2022-10-16T15:48:10;3.17;;;1.60;;
11537;SDS011;50159;49.426;11.182;2022-10-16T15:50:39;3.20;;;1.93;;
11537;SDS011;50159;49.426;11.182;2022-10-16T15:53:13;1.50;;;1.40;;
11537;SDS011;50159;49.426;11.182;2022-10-16T15:55:40;2.53;;;1.40;;
11537;SDS011;50159;49.426;11.182;2022-10-16T15:58:07;1.60;;;1.50;;
11537;SDS011;50159;49.426;11.182;2022-10-16T16:00:33;2.20;;;1.40;;
11537;SDS011;50159;49.426;11.182;2022-10-16T16:03:00;4.47;;;1.70;;
11537;SDS011;50159;49.426;11.182;2022-10-16T16:05:27;1.60;;;1.50;;
11537;SDS011;50159;49.426;11.182;2022-10-16T16:07:55;1.60;;;1.50;;
11537;SDS011;50159;49.426;11.182;2022-10-16T16:10:22;2.27;;;1.30;;
11537;SDS011;50159;49.426;11.182;2022-10-16T16:12:49;6.83;;;1.93;;
11537;SDS011;50159;49.426;11.182;2022-10-16T16:15:20;4.37;;;1.83;;
11537;SDS011;50159;49.426;11.182;2022-10-16T16:17:48;2.70;;;2.30;;
11537;SDS011;50159;49.426;11.182;2022-10-16T16:20:15;2.33;;;2.23;;
11537;SDS011;50159;49.426;11.182;2022-10-16T16:22:42;3.37;;;2.50;;
11537;SDS011;50159;49.426;11.182;2022-10-16T16:25:09;7.70;;;2.87;;
11537;SDS011;50159;49.426;11.182;2022-10-16T16:27:36;3.30;;;3.10;;
11537;SDS011;50159;49.426;11.182;2022-10-16T16:30:05;2.80;;;2.57;;
11537;SDS011;50159;49.426;11.182;2022-10-16T16:32:34;3.00;;;2.13;;
11537;SDS011;50159;49.426;11.182;2022-10-16T16:35:01;2.37;;;2.20;;
11537;SDS011;50159;49.426;11.182;2022-10-16T16:37:30;2.60;;;2.40;;
11537;SDS011;50159;49.426;11.182;2022-10-16T16:39:57;1.83;;;1.73;;
11537;SDS011;50159;49.426;11.182;2022-10-16T16:42:26;3.57;;;1.90;;
11537;SDS011;50159;49.426;11.182;2022-10-16T16:44:54;5.13;;;2.20;;
11537;SDS011;50159;49.426;11.182;2022-10-16T16:47:21;2.73;;;1.90;;
11537;SDS011;50159;49.426;11.182;2022-10-16T16:49:47;2.10;;;2.00;;
11537;SDS011;50159;49.426;11.182;2022-10-16T16:52:15;7.23;;;2.47;;
11537;SDS011;50159;49.426;11.182;2022-10-16T16:54:43;2.90;;;2.53;;
11537;SDS011;50159;49.426;11.182;2022-10-16T16:57:18;2.00;;;1.90;;
11537;SDS011;50159;49.426;11.182;2022-10-16T16:59:46;3.83;;;2.23;;
11537;SDS011;50159;49.426;11.182;2022-10-16T17:02:16;7.40;;;2.07;;
11537;SDS011;50159;49.426;11.182;2022-10-16T17:04:43;2.17;;;2.00;;
11537;SDS011;50159;49.426;11.182;2022-10-16T17:07:10;2.80;;;2.70;;
11537;SDS011;50159;49.426;11.182;2022-10-16T17:09:36;6.53;;;2.43;;
11537;SDS011;50159;49.426;11.182;2022-10-16T17:12:03;3.13;;;2.40;;
11537;SDS011;50159;49.426;11.182;2022-10-16T17:14:31;2.20;;;2.17;;
11537;SDS011;50159;49.426;11.182;2022-10-16T17:16:58;2.50;;;2.40;;
11537;SDS011;50159;49.426;11.182;2022-10-16T17:19:25;2.90;;;2.67;;
11537;SDS011;50159;49.426;11.182;2022-10-16T17:21:52;2.47;;;2.37;;
11537;SDS011;50159;49.426;11.182;2022-10-16T17:24:19;2.87;;;2.60;;
11537;SDS011;50159;49.426;11.182;2022-10-16T17:26:46;3.10;;;2.90;;